createdAt,value
2022-12-04T00:00:27.335Z,48.65
2022-12-04T00:02:53.954Z,54.08
2022-12-04T00:05:20.502Z,55.22
2022-12-04T00:07:47.155Z,51.10
2022-12-04T00:10:13.791Z,46.63
2022-12-04T00:12:40.279Z,47.80
2022-12-04T00:17:54.337Z,50.80
2022-12-04T00:20:20.993Z,44.45
2022-12-04T00:22:47.644Z,41.47
2022-12-04T00:25:14.293Z,50.97
2022-12-04T00:27:40.778Z,43.90
2022-12-04T00:30:07.971Z,50.28
2022-12-04T00:32:34.506Z,40.95
2022-12-04T00:35:01.034Z,53.67
2022-12-04T00:37:28.282Z,49.00
2022-12-04T00:39:55.126Z,52.42
2022-12-04T00:42:21.871Z,56.90
2022-12-04T00:44:48.400Z,51.60
2022-12-04T00:47:14.918Z,41.83
2022-12-04T00:49:41.657Z,49.78
2022-12-04T00:52:08.352Z,51.92
2022-12-04T00:54:34.900Z,50.50
2022-12-04T00:57:01.483Z,45.22
2022-12-04T00:59:28.018Z,43.23
2022-12-04T01:01:54.553Z,41.20
2022-12-04T01:04:21.356Z,50.55
2022-12-04T01:06:48.015Z,45.28
2022-12-04T01:09:14.628Z,46.55
2022-12-04T01:11:41.194Z,45.37
2022-12-04T01:14:07.880Z,40.63
2022-12-04T01:16:39.019Z,47.88
2022-12-04T01:19:07.978Z,51.50
2022-12-04T01:21:34.760Z,43.88
2022-12-04T01:24:01.522Z,48.03
2022-12-04T01:26:28.232Z,39.75
2022-12-04T01:28:54.766Z,53.55
2022-12-04T01:31:23.198Z,52.67
2022-12-04T01:33:51.478Z,39.92
2022-12-04T01:36:21.799Z,43.70
2022-12-04T01:38:48.587Z,45.90
2022-12-04T01:41:17.955Z,54.13
2022-12-04T01:43:44.622Z,41.20
2022-12-04T01:46:11.492Z,54.58
2022-12-04T01:48:44.751Z,44.03
2022-12-04T01:51:18.723Z,34.35
2022-12-04T01:53:52.542Z,43.47
2022-12-04T01:56:24.455Z,48.92
2022-12-04T01:58:54.634Z,55.45
2022-12-04T02:01:21.485Z,51.00
2022-12-04T02:03:48.602Z,53.13
2022-12-04T02:06:15.079Z,45.50
2022-12-04T02:08:41.667Z,51.42
2022-12-04T02:11:38.079Z,51.38
2022-12-04T02:14:07.463Z,46.87
2022-12-04T02:16:55.948Z,51.05
2022-12-04T02:19:43.701Z,54.15
2022-12-04T02:22:47.619Z,46.70
2022-12-04T02:25:22.898Z,44.33
2022-12-04T02:28:02.517Z,51.80
2022-12-04T02:30:31.096Z,54.03
2022-12-04T02:33:07.282Z,64.05
2022-12-04T02:35:40.241Z,48.60
2022-12-04T02:38:15.079Z,52.45
2022-12-04T02:40:44.520Z,55.40
2022-12-04T02:43:32.886Z,46.08
2022-12-04T02:46:03.955Z,52.40
2022-12-04T02:48:35.698Z,54.08
2022-12-04T02:51:04.365Z,50.78
2022-12-04T02:53:36.289Z,50.83
2022-12-04T02:56:08.118Z,53.53
2022-12-04T02:58:52.987Z,43.47
2022-12-04T03:01:28.082Z,45.25
2022-12-04T03:04:04.928Z,47.95
2022-12-04T03:06:36.048Z,43.20
2022-12-04T03:09:12.604Z,53.30
2022-12-04T03:11:43.616Z,42.63
2022-12-04T03:14:21.825Z,50.35
2022-12-04T03:16:50.599Z,54.47
2022-12-04T03:19:24.375Z,57.20
2022-12-04T03:22:02.815Z,51.13
2022-12-04T03:24:59.274Z,50.28
2022-12-04T03:27:43.346Z,46.08
2022-12-04T03:30:18.792Z,48.95
2022-12-04T03:32:50.765Z,52.50
2022-12-04T03:35:17.209Z,48.65
2022-12-04T03:37:56.647Z,45.67
2022-12-04T03:40:40.041Z,51.95
2022-12-04T03:43:16.448Z,57.33
2022-12-04T03:45:48.600Z,38.67
2022-12-04T03:48:23.813Z,46.90
2022-12-04T03:51:05.103Z,56.67
2022-12-04T03:53:48.847Z,51.22
2022-12-04T03:56:23.080Z,51.33
2022-12-04T03:59:05.201Z,51.77
2022-12-04T04:01:38.674Z,48.13
2022-12-04T04:04:09.909Z,41.65
2022-12-04T04:06:46.870Z,44.90
2022-12-04T04:09:19.221Z,50.95
2022-12-04T04:12:05.240Z,48.67
2022-12-04T04:15:01.838Z,44.13
2022-12-04T04:17:52.009Z,41.47
2022-12-04T04:20:44.568Z,52.55
2022-12-04T04:23:30.312Z,53.13
2022-12-04T04:26:02.912Z,51.30
2022-12-04T04:28:36.070Z,51.60
2022-12-04T04:31:26.208Z,41.85
2022-12-04T04:34:17.529Z,45.92
2022-12-04T04:36:55.835Z,53.85
2022-12-04T04:39:25.656Z,47.10
2022-12-04T04:41:58.576Z,42.95
2022-12-04T04:44:31.194Z,53.55
2022-12-04T04:47:03.830Z,48.85
2022-12-04T04:49:34.433Z,47.25
2022-12-04T04:52:03.021Z,45.40
2022-12-04T04:54:31.917Z,56.45
2022-12-04T04:56:58.431Z,49.25
2022-12-04T04:59:24.999Z,48.03
2022-12-04T05:01:51.910Z,55.53
2022-12-04T05:04:18.526Z,61.20
2022-12-04T05:06:45.088Z,48.00
2022-12-04T05:09:11.716Z,47.53
2022-12-04T05:11:38.215Z,42.70
2022-12-04T05:14:06.050Z,47.10
2022-12-04T05:16:32.768Z,57.43
2022-12-04T05:19:18.062Z,53.60
2022-12-04T05:21:44.875Z,52.17
2022-12-04T05:24:11.397Z,47.10
2022-12-04T05:26:37.932Z,49.38
2022-12-04T05:29:04.468Z,46.13
2022-12-04T05:31:31.159Z,49.15
2022-12-04T05:33:57.887Z,39.70
2022-12-04T05:36:24.432Z,49.90
2022-12-04T05:38:50.920Z,42.55
2022-12-04T05:41:17.466Z,48.87
2022-12-04T05:43:44.039Z,60.13
2022-12-04T05:46:10.867Z,55.45
2022-12-04T05:48:37.649Z,54.45
2022-12-04T05:51:09.042Z,51.72
2022-12-04T05:53:36.152Z,49.90
2022-12-04T05:56:04.947Z,54.05
2022-12-04T05:58:34.065Z,47.78
2022-12-04T06:01:00.618Z,48.95
2022-12-04T06:03:27.174Z,39.33
2022-12-04T06:05:53.737Z,54.70
2022-12-04T06:08:20.355Z,50.60
2022-12-04T06:10:46.871Z,53.10
2022-12-04T06:13:13.347Z,52.55
2022-12-04T06:15:40.626Z,50.58
2022-12-04T06:18:07.619Z,40.90
2022-12-04T06:20:34.669Z,45.75
2022-12-04T06:23:01.276Z,54.17
2022-12-04T06:25:27.837Z,45.70
2022-12-04T06:27:54.411Z,42.83
2022-12-04T06:30:20.933Z,59.40
2022-12-04T06:32:47.560Z,48.85
2022-12-04T06:35:14.051Z,41.83
2022-12-04T06:37:40.606Z,54.38
2022-12-04T06:40:08.015Z,41.15
2022-12-04T06:42:34.495Z,55.40
2022-12-04T06:45:00.975Z,47.15
2022-12-04T06:47:27.444Z,48.83
2022-12-04T06:49:54.245Z,50.20
2022-12-04T06:52:21.194Z,48.00
2022-12-04T06:54:47.704Z,59.03
2022-12-04T06:57:14.277Z,49.33
2022-12-04T06:59:40.786Z,52.65
2022-12-04T07:02:07.346Z,55.22
2022-12-04T07:04:33.932Z,55.72
2022-12-04T07:07:00.484Z,34.27
2022-12-04T07:09:27.021Z,52.08
2022-12-04T07:11:55.120Z,54.15
2022-12-04T07:14:21.737Z,48.28
2022-12-04T07:16:48.319Z,57.60
2022-12-04T07:19:14.915Z,55.23
2022-12-04T07:21:42.514Z,52.50
2022-12-04T07:24:14.972Z,52.83
2022-12-04T07:26:41.595Z,50.55
2022-12-04T07:29:08.127Z,50.75
2022-12-04T07:31:34.707Z,49.53
2022-12-04T07:34:01.265Z,52.95
2022-12-04T07:36:27.921Z,49.25
2022-12-04T07:38:56.004Z,50.75
2022-12-04T07:41:22.641Z,47.13
2022-12-04T07:43:49.115Z,46.70
2022-12-04T07:46:19.500Z,40.78
2022-12-04T07:48:46.221Z,56.13
2022-12-04T07:51:15.730Z,41.08
2022-12-04T07:53:43.045Z,35.58
2022-12-04T07:56:11.047Z,54.87
2022-12-04T07:58:37.912Z,49.78
2022-12-04T08:01:20.394Z,47.83
2022-12-04T08:03:49.179Z,58.75
2022-12-04T08:06:18.870Z,54.17
2022-12-04T08:08:46.632Z,49.30
2022-12-04T08:11:16.623Z,45.90
2022-12-04T08:13:43.163Z,44.08
2022-12-04T08:16:11.229Z,43.63
2022-12-04T08:18:38.155Z,44.88
2022-12-04T08:21:08.456Z,55.57
2022-12-04T08:23:35.431Z,50.83
2022-12-04T08:26:02.945Z,47.83
2022-12-04T08:28:29.666Z,50.25
2022-12-04T08:31:03.101Z,43.20
2022-12-04T08:33:29.849Z,41.77
2022-12-04T08:35:56.368Z,46.65
2022-12-04T08:38:22.905Z,44.20
2022-12-04T08:40:49.632Z,51.25
2022-12-04T08:43:16.352Z,49.30
2022-12-04T08:45:42.939Z,47.93
2022-12-04T08:48:09.538Z,34.08
2022-12-04T08:50:36.086Z,47.13
2022-12-04T08:53:02.619Z,49.33
2022-12-04T08:55:29.149Z,49.78
2022-12-04T08:57:55.660Z,54.77
2022-12-04T09:00:22.284Z,49.75
2022-12-04T09:02:49.909Z,47.33
2022-12-04T09:05:17.705Z,43.95
2022-12-04T09:07:44.430Z,49.65
2022-12-04T09:10:11.752Z,53.17
2022-12-04T09:12:38.227Z,47.88
2022-12-04T09:15:05.151Z,55.30
2022-12-04T09:17:31.632Z,49.78
2022-12-04T09:20:01.137Z,56.55
2022-12-04T09:22:40.396Z,52.37
2022-12-04T09:25:14.908Z,43.13
2022-12-04T09:27:41.801Z,45.50
2022-12-04T09:30:12.177Z,46.83
2022-12-04T09:32:39.126Z,44.92
2022-12-04T09:35:07.310Z,46.37
2022-12-04T09:37:33.972Z,47.95
2022-12-04T09:40:00.485Z,44.85
2022-12-04T09:42:45.853Z,53.90
2022-12-04T09:45:17.698Z,35.83
2022-12-04T09:47:50.065Z,52.27
2022-12-04T09:50:22.493Z,53.83
2022-12-04T09:53:02.053Z,44.83
2022-12-04T09:55:35.768Z,47.53
2022-12-04T09:58:05.672Z,43.22
2022-12-04T10:00:38.590Z,48.17
2022-12-04T10:03:12.408Z,51.72
2022-12-04T10:05:57.432Z,42.83
2022-12-04T10:08:31.866Z,56.47
2022-12-04T10:11:33.083Z,38.25
2022-12-04T10:14:13.851Z,51.93
2022-12-04T10:17:30.866Z,46.05
2022-12-04T10:20:40.916Z,54.75
2022-12-04T10:23:43.225Z,56.30
2022-12-04T10:26:17.540Z,50.40
2022-12-04T10:28:55.183Z,51.27
2022-12-04T10:31:23.198Z,48.67
2022-12-04T10:33:56.740Z,50.35
2022-12-04T10:36:29.103Z,48.28
2022-12-04T10:39:00.166Z,45.63
2022-12-04T10:41:34.780Z,53.17
2022-12-04T10:44:01.314Z,57.25
2022-12-04T10:46:30.566Z,48.88
2022-12-04T10:49:06.737Z,47.65
2022-12-04T10:51:44.020Z,44.58
2022-12-04T10:54:24.136Z,44.97
2022-12-04T10:57:02.187Z,52.83
2022-12-04T10:59:29.462Z,48.08
2022-12-04T11:02:13.353Z,33.63
2022-12-04T11:04:40.451Z,38.10
2022-12-04T11:07:23.649Z,52.83
2022-12-04T11:10:06.697Z,52.72
2022-12-04T11:12:33.621Z,50.63
2022-12-04T11:15:13.903Z,44.83
2022-12-04T11:17:40.791Z,44.65
2022-12-04T11:20:15.584Z,29.43
2022-12-04T11:22:59.384Z,50.35
2022-12-04T11:25:28.798Z,32.80
2022-12-04T11:27:59.160Z,52.63
2022-12-04T11:30:30.649Z,49.30
2022-12-04T11:32:58.048Z,46.07
2022-12-04T11:35:26.932Z,40.55
2022-12-04T11:38:05.076Z,40.15
2022-12-04T11:40:31.717Z,44.80
2022-12-04T11:43:12.984Z,40.95
2022-12-04T11:45:39.689Z,39.13
2022-12-04T11:48:18.933Z,40.20
2022-12-04T11:50:48.396Z,39.53
2022-12-04T11:53:30.045Z,40.97
2022-12-04T11:56:21.349Z,45.72
2022-12-04T11:59:03.124Z,31.57
2022-12-04T12:02:00.661Z,33.70
2022-12-04T12:04:48.914Z,31.55
2022-12-04T12:07:34.725Z,35.15
2022-12-04T12:10:10.487Z,39.92
2022-12-04T12:12:53.742Z,32.13
2022-12-04T12:15:35.808Z,35.10
2022-12-04T12:18:30.377Z,24.13
2022-12-04T12:21:09.906Z,37.88
2022-12-04T12:24:18.961Z,25.17
2022-12-04T12:26:50.174Z,30.37
2022-12-04T12:29:25.532Z,28.08
2022-12-04T12:32:08.814Z,33.50
2022-12-04T12:34:35.638Z,27.58
2022-12-04T12:37:13.713Z,30.08
2022-12-04T12:39:47.863Z,26.17
2022-12-04T12:42:45.452Z,26.25
2022-12-04T12:45:29.039Z,28.42
2022-12-04T12:48:01.971Z,26.88
2022-12-04T12:50:58.235Z,25.15
2022-12-04T12:53:39.840Z,24.90
2022-12-04T12:56:11.973Z,29.08
2022-12-04T12:58:45.402Z,28.17
2022-12-04T13:01:19.945Z,22.38
2022-12-04T13:03:54.085Z,24.60
2022-12-04T13:06:34.076Z,24.87
2022-12-04T13:09:06.995Z,28.17
2022-12-04T13:11:34.349Z,24.27
2022-12-04T13:14:03.457Z,24.58
2022-12-04T13:16:59.068Z,26.77
2022-12-04T13:19:43.412Z,19.47
2022-12-04T13:22:35.270Z,28.95
2022-12-04T13:25:16.964Z,25.77
2022-12-04T13:28:07.771Z,25.15
2022-12-04T13:30:56.701Z,24.17
2022-12-04T13:33:23.163Z,29.50
2022-12-04T13:36:16.012Z,26.35
2022-12-04T13:38:59.124Z,28.35
2022-12-04T13:41:27.220Z,23.13
2022-12-04T13:43:55.201Z,25.77
2022-12-04T13:46:36.340Z,29.23
2022-12-04T13:49:18.229Z,34.25
2022-12-04T13:51:47.696Z,36.13
2022-12-04T13:54:14.209Z,27.77
2022-12-04T13:56:46.638Z,28.58
2022-12-04T13:59:33.994Z,31.40
2022-12-04T14:02:07.937Z,20.17
2022-12-04T14:04:44.358Z,32.05
2022-12-04T14:08:02.925Z,28.33
2022-12-04T14:10:36.499Z,38.00
2022-12-04T14:13:19.255Z,32.83
2022-12-04T14:15:46.315Z,28.55
2022-12-04T14:18:13.265Z,32.55
2022-12-04T14:20:42.010Z,29.30
2022-12-04T14:23:19.977Z,30.85
2022-12-04T14:25:46.528Z,35.37
2022-12-04T14:28:31.163Z,33.92
2022-12-04T14:31:25.713Z,32.88
2022-12-04T14:33:58.011Z,32.97
2022-12-04T14:36:27.571Z,33.60
2022-12-04T14:39:08.999Z,28.87
2022-12-04T14:41:35.585Z,34.40
2022-12-04T14:44:02.159Z,32.17
2022-12-04T14:46:36.664Z,33.50
2022-12-04T14:49:40.757Z,25.58
2022-12-04T14:52:17.718Z,30.73
2022-12-04T14:55:06.003Z,27.27
2022-12-04T14:57:55.424Z,33.45
2022-12-04T15:00:23.994Z,26.95
2022-12-04T15:02:56.108Z,27.38
2022-12-04T15:05:26.988Z,30.67
2022-12-04T15:08:02.609Z,24.65
2022-12-04T15:10:50.332Z,28.33
2022-12-04T15:13:30.505Z,31.95
2022-12-04T15:15:57.528Z,25.55
2022-12-04T15:18:24.118Z,31.43
2022-12-04T15:20:51.247Z,25.48
2022-12-04T15:23:30.103Z,31.65
2022-12-04T15:25:59.615Z,32.08
2022-12-04T15:28:28.043Z,21.55
2022-12-04T15:30:57.589Z,28.07
2022-12-04T15:33:28.689Z,26.83
2022-12-04T15:36:02.919Z,24.70
2022-12-04T15:38:29.798Z,31.63
2022-12-04T15:41:00.974Z,29.63
2022-12-04T15:43:39.913Z,26.67
2022-12-04T15:46:23.233Z,28.17
2022-12-04T15:48:49.761Z,28.90
2022-12-04T15:51:20.275Z,28.95
2022-12-04T15:53:50.260Z,26.40
2022-12-04T15:56:22.176Z,20.20
2022-12-04T15:58:56.303Z,25.27
2022-12-04T16:01:23.411Z,23.83
2022-12-04T16:03:53.193Z,24.40
2022-12-04T16:06:23.378Z,24.77
2022-12-04T16:08:55.834Z,25.50
2022-12-04T16:11:22.324Z,29.80
2022-12-04T16:14:04.008Z,26.77
2022-12-04T16:16:30.829Z,24.80
2022-12-04T16:18:57.822Z,28.92
2022-12-04T16:21:31.186Z,24.00
2022-12-04T16:24:03.124Z,23.70
2022-12-04T16:26:30.122Z,32.65
2022-12-04T16:28:56.816Z,28.55
2022-12-04T16:31:24.674Z,27.23
2022-12-04T16:33:52.069Z,27.13
2022-12-04T16:36:19.134Z,29.85
2022-12-04T16:38:45.823Z,20.05
2022-12-04T16:41:18.114Z,23.98
2022-12-04T16:43:44.832Z,21.45
2022-12-04T16:46:16.388Z,24.07
2022-12-04T16:48:43.460Z,24.55
2022-12-04T16:51:16.559Z,25.05
2022-12-04T16:53:43.639Z,26.00
2022-12-04T16:56:10.776Z,24.20
2022-12-04T16:58:37.692Z,25.43
2022-12-04T17:01:06.880Z,28.48
2022-12-04T17:03:34.241Z,28.85
2022-12-04T17:06:01.206Z,23.55
2022-12-04T17:08:28.215Z,25.38
2022-12-04T17:10:54.840Z,23.07
2022-12-04T17:13:21.926Z,27.90
2022-12-04T17:15:48.608Z,26.70
2022-12-04T17:18:20.820Z,25.88
2022-12-04T17:20:48.229Z,28.25
2022-12-04T17:23:14.887Z,25.83
2022-12-04T17:25:41.607Z,20.85
2022-12-04T17:28:08.718Z,20.83
2022-12-04T17:30:36.436Z,20.38
2022-12-04T17:33:04.731Z,28.50
2022-12-04T17:35:31.416Z,21.43
2022-12-04T17:38:02.295Z,22.92
2022-12-04T17:40:32.282Z,26.60
2022-12-04T17:42:58.858Z,22.38
2022-12-04T17:45:25.544Z,24.70
2022-12-04T17:47:52.075Z,22.73
2022-12-04T17:50:18.618Z,20.88
2022-12-04T17:52:45.166Z,25.52
2022-12-04T17:55:11.697Z,26.23
2022-12-04T17:57:38.286Z,27.17
2022-12-04T18:00:05.556Z,24.97
2022-12-04T18:02:32.083Z,27.60
2022-12-04T18:04:59.016Z,28.33
2022-12-04T18:07:25.727Z,19.98
2022-12-04T18:09:52.243Z,25.40
2022-12-04T18:12:18.788Z,20.50
2022-12-04T18:14:45.339Z,25.23
2022-12-04T18:17:11.942Z,25.75
2022-12-04T18:19:38.526Z,26.65
2022-12-04T18:22:05.141Z,19.50
2022-12-04T18:24:31.715Z,28.93
2022-12-04T18:26:58.456Z,28.75
2022-12-04T18:29:26.599Z,23.25
2022-12-04T18:31:53.746Z,24.65
2022-12-04T18:34:20.862Z,25.08
2022-12-04T18:36:47.547Z,22.43
2022-12-04T18:39:24.165Z,24.50
2022-12-04T18:41:51.288Z,24.58
2022-12-04T18:44:18.001Z,28.25
2022-12-04T18:46:44.620Z,31.58
2022-12-04T18:49:11.879Z,24.73
2022-12-04T18:51:40.769Z,27.73
2022-12-04T18:54:11.293Z,19.60
2022-12-04T18:56:38.529Z,22.23
2022-12-04T18:59:18.279Z,23.92
2022-12-04T19:01:44.995Z,26.87
2022-12-04T19:04:13.822Z,21.83
2022-12-04T19:06:43.648Z,20.88
2022-12-04T19:09:14.225Z,23.83
2022-12-04T19:11:41.815Z,23.23
2022-12-04T19:14:17.523Z,23.33
2022-12-04T19:16:48.386Z,22.25
2022-12-04T19:19:15.478Z,25.60
2022-12-04T19:21:42.093Z,26.42
2022-12-04T19:24:10.546Z,27.75
2022-12-04T19:26:37.455Z,20.67
2022-12-04T19:29:05.464Z,25.58
2022-12-04T19:31:34.713Z,26.08
2022-12-04T19:34:01.781Z,21.63
2022-12-04T19:36:30.896Z,22.00
2022-12-04T19:38:58.147Z,24.53
2022-12-04T19:41:27.298Z,29.05
2022-12-04T19:43:58.935Z,29.65
2022-12-04T19:46:28.965Z,34.88
2022-12-04T19:48:58.393Z,29.67
2022-12-04T19:51:25.858Z,29.30
2022-12-04T19:53:54.798Z,26.92
2022-12-04T19:56:24.566Z,30.42
2022-12-04T19:58:52.377Z,36.40
2022-12-04T20:01:21.391Z,26.37
2022-12-04T20:03:47.977Z,33.78
2022-12-04T20:06:18.363Z,35.05
2022-12-04T20:08:45.420Z,36.10
2022-12-04T20:11:15.746Z,31.52
2022-12-04T20:13:43.385Z,33.50
2022-12-04T20:16:12.012Z,28.83
2022-12-04T20:18:40.059Z,31.80
2022-12-04T20:21:12.874Z,42.50
2022-12-04T20:23:50.026Z,32.30
2022-12-04T20:26:19.681Z,40.73
2022-12-04T20:28:46.605Z,42.20
2022-12-04T20:31:31.522Z,33.53
2022-12-04T20:34:00.342Z,28.77
2022-12-04T20:36:29.066Z,36.85
2022-12-04T20:39:00.169Z,28.97
2022-12-04T20:41:28.881Z,35.00
2022-12-04T20:43:55.941Z,27.40
2022-12-04T20:46:28.641Z,34.92
2022-12-04T20:48:55.284Z,38.42
2022-12-04T20:51:33.084Z,38.17
2022-12-04T20:54:00.880Z,27.85
2022-12-04T20:56:30.029Z,37.22
2022-12-04T20:59:03.974Z,32.78
2022-12-04T21:01:31.121Z,32.90
2022-12-04T21:04:01.553Z,34.93
2022-12-04T21:06:37.273Z,38.88
2022-12-04T21:09:30.971Z,35.50
2022-12-04T21:11:58.333Z,30.85
2022-12-04T21:14:46.194Z,40.53
2022-12-04T21:17:18.838Z,39.10
2022-12-04T21:19:47.546Z,36.58
2022-12-04T21:22:14.873Z,35.78
2022-12-04T21:24:42.324Z,32.00
2022-12-04T21:27:13.304Z,40.50
2022-12-04T21:29:43.169Z,37.40
2022-12-04T21:32:09.769Z,45.13
2022-12-04T21:34:36.254Z,39.27
2022-12-04T21:37:02.864Z,44.80
2022-12-04T21:39:29.405Z,31.58
2022-12-04T21:42:14.570Z,37.00
2022-12-04T21:44:41.063Z,35.92
2022-12-04T21:47:07.621Z,37.73
2022-12-04T21:49:34.199Z,32.05
2022-12-04T21:52:00.698Z,34.75
2022-12-04T21:54:28.475Z,41.17
2022-12-04T21:56:55.494Z,32.60
2022-12-04T21:59:22.629Z,38.90
2022-12-04T22:01:49.321Z,40.50
2022-12-04T22:04:16.410Z,35.80
2022-12-04T22:06:42.988Z,39.95
2022-12-04T22:09:11.679Z,35.03
2022-12-04T22:11:41.675Z,37.90
2022-12-04T22:14:09.797Z,24.45
2022-12-04T22:16:41.591Z,37.92
2022-12-04T22:19:09.182Z,33.60
2022-12-04T22:21:35.741Z,37.13
2022-12-04T22:24:04.082Z,37.83
2022-12-04T22:26:31.809Z,37.80
2022-12-04T22:28:58.394Z,35.92
2022-12-04T22:31:27.391Z,37.33
2022-12-04T22:33:56.150Z,38.30
2022-12-04T22:36:25.651Z,40.43
2022-12-04T22:39:08.632Z,35.20
2022-12-04T22:41:36.286Z,36.15
2022-12-04T22:44:03.321Z,34.80
2022-12-04T22:46:30.066Z,29.40
2022-12-04T22:48:58.677Z,37.53
2022-12-04T22:51:25.228Z,30.08
2022-12-04T22:53:54.057Z,33.58
2022-12-04T22:56:23.868Z,35.38
2022-12-04T22:58:51.013Z,31.50
2022-12-04T23:01:21.671Z,42.10
2022-12-04T23:03:49.623Z,30.95
2022-12-04T23:06:17.994Z,34.92
2022-12-04T23:08:45.597Z,32.10
2022-12-04T23:11:17.645Z,29.00
2022-12-04T23:13:44.768Z,36.97
2022-12-04T23:16:14.316Z,32.70
2022-12-04T23:18:44.989Z,35.28
2022-12-04T23:21:13.351Z,31.27
2022-12-04T23:23:42.182Z,24.77
2022-12-04T23:26:15.924Z,30.60
2022-12-04T23:28:43.578Z,29.23
2022-12-04T23:31:11.039Z,25.92
2022-12-04T23:33:39.089Z,29.23
2022-12-04T23:36:07.070Z,35.92
2022-12-04T23:38:35.364Z,30.38
2022-12-04T23:41:16.847Z,32.67
2022-12-04T23:43:44.638Z,28.98
2022-12-04T23:46:13.195Z,26.67
2022-12-04T23:48:41.428Z,23.23
2022-12-04T23:51:09.174Z,27.63
2022-12-04T23:53:36.052Z,25.38
2022-12-04T23:56:06.890Z,25.85
2022-12-04T23:58:34.901Z,26.15
